• Join FlightAware (Why Join?)
  • Login
  • US Flag 
Rudolph Flight #1: Arrived! 
05:33PM EST


 

Airport Tracker/Info


-or-


 

Live Flight TrackerFlight Track Log ✈ EGF3796 ✈ 28-Apr-2013 ✈ KORD - KXNA

Flight Track Log - Related Links

Times and Time Zones

All times are in EDT time to prevent confusion due to time zone crossing. See the EGF3796 flight status page for this flight to view local times or setup timezone preferences in your user account.

Time Position Orientation Groundspeed Altitude Reporting Facility
EDT Latitude Longitude Course Direction KTS MPH feet Rate Location/Type
07:24PM 41.9167 -87.9167 201° Southwest 180 207 2,600  Level Chicago TRACON
07:25PM 41.8117 -87.9133 179° South 244 281 6,800 3,000 Climbing Chicago Center
07:26PM 41.6429 -88.0595 203° Southwest  Level FlightAware Approximate
07:27PM 41.5306 -88.1112 197° South  Level FlightAware Approximate
07:27PM 41.7397 -87.9606 206° Southwest 286 329 10,400  Level Chicago Center
07:28PM 41.4164 -88.1556 194° South  Level FlightAware Approximate
07:28PM 41.6633 -88.0108 206° Southwest 304 350 12,500  Level Chicago Center
07:29PM 41.3039 -88.2064 201° Southwest  Level FlightAware Approximate
07:29PM 41.5750 -88.0678 206° Southwest 357 411 13,800  Level Chicago Center
07:30PM 41.4675 -88.1389 206° Southwest 369 425 16,400 2,220 Climbing Chicago Center
07:31PM 41.3747 -88.1947 204° Southwest 382 440 18,400 1,680 Climbing Chicago Center
07:32PM 41.2722 -88.2392 198° South 389 448 19,900 1,680 Climbing Chicago Center
07:33PM 41.1439 -88.2983 199° South 407 468 21,900 1,620 Climbing Chicago Center
07:34PM 41.0342 -88.3483 199° South 419 482 23,300 1,320 Climbing Chicago Center
07:35PM 40.9217 -88.3978 198° South 427 491 24,700 1,140 Climbing Chicago Center
07:36PM 40.8067 -88.4494 199° South 438 504 25,700 960 Climbing Chicago Center
07:37PM 40.7022 -88.5344 212° Southwest 450 518 26,800 1,140 Climbing Chicago Center
07:38PM 40.5861 -88.6611 220° Southwest 451 519 28,100 1,020 Climbing Chicago Center
07:39PM 40.4881 -88.7683 220° Southwest 460 529 29,000 840 Climbing Chicago Center
07:40PM 40.4008 -88.8617 219° Southwest 462 532 29,900 840 Climbing Chicago Center
07:41PM 40.2789 -88.9931 219° Southwest 470 541 30,800 780 Climbing Chicago Center
07:42PM 40.1761 -89.1019 219° Southwest 473 544 31,600 540 Climbing Chicago Center
07:43PM 40.0725 -89.2147 220° Southwest 481 554 32,000 180 Climbing Chicago Center
07:44PM 39.9872 -89.3050 219° Southwest 483 556 32,000  Level Kansas City Center
07:45PM 39.8794 -89.4192 219° Southwest 494 568 32,000  Level Kansas City Center
07:46PM 39.7481 -89.5569 219° Southwest 501 577 32,000  Level Kansas City Center
07:47PM 39.6464 -89.6678 220° Southwest 503 579 32,000  Level Kansas City Center
07:48PM 39.5508 -89.7975 226° Southwest 498 573 32,000  Level Kansas City Center
07:49PM 39.4575 -89.9292 227° Southwest 498 573 32,000  Level Kansas City Center
07:50PM 39.3639 -90.0603 227° Southwest 498 573 32,000  Level Kansas City Center
07:51PM 39.2522 -90.2167 227° Southwest 497 572 32,000  Level Kansas City Center
07:52PM 39.1578 -90.3458 227° Southwest 498 573 32,000  Level Kansas City Center
07:53PM 39.0658 -90.4733 227° Southwest 493 567 32,000  Level Kansas City Center
07:54PM 38.9733 -90.5983 226° Southwest 490 564 32,000  Level Kansas City Center
07:55PM 38.8653 -90.7467 227° Southwest 480 552 32,000  Level Kansas City Center
07:56PM 38.7736 -90.8697 226° Southwest 482 555 32,000  Level Kansas City Center
07:57PM 38.6783 -90.9992 227° Southwest 495 570 32,000  Level Kansas City Center
07:58PM 38.5842 -91.1239 226° Southwest 497 572 32,000  Level Kansas City Center
07:59PM 38.4906 -91.2486 226° Southwest 493 567 32,000  Level Kansas City Center
08:00PM 38.3775 -91.4003 226° Southwest 480 552 32,000  Level Kansas City Center
08:01PM 38.2803 -91.5253 225° Southwest 499 574 32,000  Level Kansas City Center
08:03PM 38.1839 -91.6517 226° Southwest 499 574 32,000 -420 Level Kansas City Center
08:04PM 38.0886 -91.7786 226° Southwest 496 571 31,200 -900 Descending Kansas City Center
08:05PM 37.9925 -91.9050 226° Southwest 494 568 30,200 -1,020 Descending Kansas City Center
08:06PM 37.8983 -92.0275 226° Southwest 482 555 29,100 -1,020 Descending Kansas City Center
08:07PM 37.8136 -92.1400 226° Southwest 475 547 28,200 -1,020 Descending Kansas City Center
08:08PM 37.7039 -92.2800 225° Southwest 470 541 27,000 -1,020 Descending Kansas City Center
08:09PM 37.6194 -92.3900 226° Southwest 473 544 26,100 -960 Descending Kansas City Center
08:10PM 37.5264 -92.5106 226° Southwest 474 545 25,100 -1,080 Descending Kansas City Center
08:11PM 37.4150 -92.6553 226° Southwest 475 547 23,900 -1,140 Descending Kansas City Center
08:12PM 37.3228 -92.7689 224° Southwest 466 536 22,800 -1,260 Descending Kansas City Center
08:13PM 37.2328 -92.8828 225° Southwest 460 529 21,300 -1,500 Descending Kansas City Center
08:14PM 37.1450 -92.9950 226° Southwest 453 521 19,700 -1,560 Descending Kansas City Center
08:15PM 37.0597 -93.1022 225° Southwest 440 506 18,100 -1,560 Descending Kansas City Center
08:16PM 36.9758 -93.2081 225° Southwest 430 495 16,500 -1,560 Descending Kansas City Center
08:17PM 36.8933 -93.3100 225° Southwest 420 483 14,900 -1,680 Descending Kansas City Center
08:18PM 36.8086 -93.4178 226° Southwest 408 470 13,100 -1,620 Descending Kansas City Center
08:19PM 36.7308 -93.5153 225° Southwest 402 463 11,600 -1,260 Descending Kansas City Center
08:20PM 36.6686 -93.6194 233° Southwest 390 449 10,600 -780 Descending Kansas City Center
08:21PM 36.6144 -93.7533 243° Southwest 365 420 10,100 -300 Descending Kansas City Center
08:22PM 36.5725 -93.8578 243° Southwest 359 413 10,100 -360 Level Kansas City Center
08:23PM 36.5361 -93.9481 243° Southwest 307 353 9,400 -1,260 Descending Kansas City Center
08:24PM 36.5022 -94.0331 244° Southwest 281 323 7,600 -2,040 Descending Kansas City Center
08:25PM 36.4617 -94.1317 243° Southwest 271 312 5,300 -1,800 Descending Kansas City Center
08:26PM 36.4281 -94.2136 243° Southwest 268 308 4,000 -780 Descending Kansas City Center
08:27PM 36.3958 -94.2903 242° Southwest 261 300 3,700 -300 Descending Kansas City Center